Time;durP1;ratioP1;P1;durP2;ratioP2;P2;SDS_P1;SDS_P2;PMS_P1;PMS_P2;Temp;Humidity;BMP_temperature;BMP_pressure;BME280_temperature;BME280_humidity;BME280_pressure;Samples;Min_cycle;Max_cycle;Signal;HPM_P1;HPM_P2
2022/08/19 00:02:12;;;;;;;9.18;4.45;;;25.50;75.70;;;;;;5066902;28;20098;-84
2022/08/19 00:04:38;;;;;;;8.88;4.57;;;25.50;75.00;;;;;;5065942;28;20020;-83
2022/08/19 00:07:05;;;;;;;6.70;3.90;;;25.50;75.10;;;;;;5065780;28;20441;-83
2022/08/19 00:09:30;;;;;;;6.15;4.18;;;25.50;75.10;;;;;;5065543;28;20021;-84
2022/08/19 00:11:57;;;;;;;5.90;3.85;;;25.50;75.10;;;;;;5067331;28;20508;-84
2022/08/19 00:14:25;;;;;;;5.95;3.97;;;25.50;75.40;;;;;;5065847;28;20029;-84
2022/08/19 00:16:53;;;;;;;9.40;4.20;;;25.50;75.40;;;;;;5067440;28;20025;-83
2022/08/19 00:19:20;;;;;;;8.07;4.85;;;25.50;75.40;;;;;;5065613;28;20024;-83
2022/08/19 00:21:45;;;;;;;6.13;4.45;;;25.50;75.80;;;;;;5065242;28;20075;-83
2022/08/19 00:24:13;;;;;;;12.80;4.68;;;25.40;76.20;;;;;;5073052;28;20032;-84
2022/08/19 00:26:39;;;;;;;6.85;4.32;;;25.40;75.70;;;;;;5086082;28;20036;-84
2022/08/19 00:29:07;;;;;;;6.13;4.25;;;25.40;76.20;;;;;;5085467;28;20110;-83
2022/08/19 00:31:33;;;;;;;5.82;4.03;;;25.40;76.90;;;;;;5083377;28;20474;-81
2022/08/19 00:33:59;;;;;;;8.13;4.68;;;25.30;76.80;;;;;;5065253;28;20025;-82
2022/08/19 00:36:24;;;;;;;5.78;4.03;;;25.30;77.60;;;;;;5065839;28;20477;-83
2022/08/19 00:38:51;;;;;;;8.00;5.07;;;25.30;77.30;;;;;;5065665;28;20078;-84
2022/08/19 00:41:20;;;;;;;8.73;4.53;;;25.20;77.50;;;;;;5065428;28;20036;-84
2022/08/19 00:44:06;;;;;;;18.27;4.47;;;25.20;77.90;;;;;;5067602;28;20397;-83
2022/08/19 00:46:33;;;;;;;11.75;3.75;;;25.20;79.40;;;;;;5069368;28;20062;-82
2022/08/19 00:49:02;;;;;;;6.22;3.97;;;25.00;79.20;;;;;;5068157;28;20043;-83
2022/08/19 00:51:30;;;;;;;8.27;4.85;;;25.00;79.20;;;;;;5069685;28;20036;-84
2022/08/19 00:53:58;;;;;;;7.43;5.18;;;25.00;79.10;;;;;;5068539;28;20641;-84
2022/08/19 00:56:26;;;;;;;5.03;4.13;;;25.00;79.60;;;;;;5068899;28;20032;-84
2022/08/19 00:58:52;;;;;;;6.53;4.78;;;25.00;79.80;;;;;;5068671;28;20024;-81
2022/08/19 01:01:17;;;;;;;5.97;4.22;;;25.00;80.20;;;;;;5069938;28;20024;-82
2022/08/19 01:03:43;;;;;;;6.65;4.68;;;24.90;80.10;;;;;;5069729;28;20029;-84
2022/08/19 01:06:09;;;;;;;9.32;5.03;;;25.00;80.30;;;;;;5069015;28;20409;-81
2022/08/19 01:08:34;;;;;;;6.43;5.25;;;24.90;80.50;;;;;;5067720;28;20028;-81
2022/08/19 01:11:00;;;;;;;7.82;4.32;;;24.80;81.00;;;;;;5068639;28;20037;-80
2022/08/19 01:13:30;;;;;;;8.50;5.43;;;24.70;81.40;;;;;;5068466;28;20024;-82
2022/08/19 01:16:01;;;;;;;13.70;5.03;;;24.70;81.50;;;;;;5067969;28;20036;-82
2022/08/19 01:18:28;;;;;;;8.50;4.57;;;24.60;81.90;;;;;;5068365;28;20027;-82
2022/08/19 01:20:57;;;;;;;7.68;5.22;;;24.60;81.90;;;;;;5068467;28;20528;-81
2022/08/19 01:23:42;;;;;;;9.05;5.43;;;24.50;82.10;;;;;;5067566;28;20493;-82
2022/08/19 01:26:13;;;;;;;10.88;5.00;;;24.50;82.40;;;;;;5068190;28;20035;-81
2022/08/19 01:28:40;;;;;;;10.77;5.00;;;24.50;82.40;;;;;;5067852;28;20037;-81
2022/08/19 01:31:11;;;;;;;8.27;5.25;;;24.50;82.90;;;;;;5068078;28;20532;-81
2022/08/19 01:33:37;;;;;;;14.88;5.30;;;24.50;83.00;;;;;;5067854;28;20115;-82
2022/08/19 01:36:15;;;;;;;15.10;5.43;;;24.60;82.00;;;;;;5068118;28;20020;-82
2022/08/19 01:38:42;;;;;;;6.05;4.97;;;24.80;81.60;;;;;;5068808;28;20027;-82
2022/08/19 01:41:10;;;;;;;8.07;4.38;;;24.90;81.30;;;;;;5068236;28;20048;-82
2022/08/19 01:43:37;;;;;;;6.32;4.22;;;25.00;80.80;;;;;;5067466;28;20119;-81
2022/08/19 01:46:04;;;;;;;10.30;5.13;;;25.20;80.70;;;;;;5077657;28;20059;-82
2022/08/19 01:48:39;;;;;;;10.75;4.68;;;25.20;80.40;;;;;;5070663;28;20041;-82
2022/08/19 01:51:05;;;;;;;7.32;5.10;;;25.20;80.00;;;;;;5050166;28;20472;-82
2022/08/19 01:53:31;;;;;;;6.47;5.03;;;25.30;80.30;;;;;;5071066;28;20040;-81
2022/08/19 01:55:57;;;;;;;6.95;5.38;;;25.30;80.40;;;;;;5070761;28;20157;-83
2022/08/19 01:58:30;;;;;;;8.10;5.60;;;25.30;80.00;;;;;;5065809;28;20051;-82
2022/08/19 02:00:56;;;;;;;8.60;4.97;;;25.30;80.20;;;;;;5073656;28;20040;-82
2022/08/19 02:03:22;;;;;;;9.52;5.25;;;25.30;80.10;;;;;;5069519;28;20040;-83
2022/08/19 02:05:53;;;;;;;6.00;4.57;;;25.30;80.20;;;;;;5079691;28;20040;-83
2022/08/19 02:08:18;;;;;;;7.70;5.10;;;25.30;80.30;;;;;;5060602;28;20033;-82
2022/08/19 02:10:44;;;;;;;9.57;4.72;;;25.20;81.10;;;;;;5056698;28;20044;-82
2022/08/19 02:13:11;;;;;;;7.50;4.68;;;25.20;80.80;;;;;;5054391;28;20120;-83
2022/08/19 02:15:37;;;;;;;9.57;5.32;;;25.20;81.50;;;;;;5059745;28;20451;-81
2022/08/19 02:18:03;;;;;;;9.93;4.93;;;25.00;81.90;;;;;;5061795;28;20513;-84
2022/08/19 02:20:29;;;;;;;7.82;5.07;;;24.90;82.10;;;;;;5042310;28;20095;-81
2022/08/19 02:22:55;;;;;;;7.65;5.25;;;24.80;82.70;;;;;;5045915;28;20485;-82
2022/08/19 02:25:20;;;;;;;8.85;4.55;;;24.70;83.60;;;;;;5049174;28;20102;-83
2022/08/19 02:27:46;;;;;;;6.80;5.00;;;24.50;83.50;;;;;;5063313;28;20083;-84
2022/08/19 02:30:16;;;;;;;7.40;4.53;;;24.40;84.00;;;;;;5063674;28;20044;-82
2022/08/19 02:32:42;;;;;;;8.77;5.90;;;24.30;84.80;;;;;;5075130;28;20166;-82
2022/08/19 02:35:08;;;;;;;10.95;5.55;;;24.20;85.10;;;;;;5068804;28;20478;-83
2022/08/19 02:40:18;;;;;;;10.93;5.35;;;24.20;85.60;;;;;;5068174;28;20043;-82
2022/08/19 02:42:45;;;;;;;8.38;4.72;;;24.20;85.70;;;;;;5067621;28;20025;-82
2022/08/19 02:45:13;;;;;;;7.95;5.28;;;24.20;85.30;;;;;;5067534;28;20024;-82
2022/08/19 02:47:38;;;;;;;7.00;4.82;;;24.20;85.50;;;;;;5066840;28;20016;-83
2022/08/19 02:50:05;;;;;;;7.95;5.10;;;24.30;86.00;;;;;;5067096;28;20028;-83
2022/08/19 02:52:32;;;;;;;13.07;6.28;;;24.30;86.00;;;;;;5067976;28;20028;-82
2022/08/19 02:54:58;;;;;;;6.70;5.38;;;24.20;86.30;;;;;;5066952;28;20029;-83
2022/08/19 02:57:24;;;;;;;10.07;5.10;;;24.10;86.40;;;;;;5066282;28;20028;-83
2022/08/19 02:59:50;;;;;;;6.03;4.95;;;24.10;86.80;;;;;;5066699;28;20031;-83
2022/08/19 03:02:16;;;;;;;5.80;4.55;;;24.00;87.20;;;;;;5065726;28;20036;-83
2022/08/19 03:04:42;;;;;;;8.45;4.88;;;24.00;87.70;;;;;;5065773;28;20020;-83
2022/08/19 03:07:08;;;;;;;6.10;4.97;;;23.90;88.20;;;;;;5066739;28;20512;-83
2022/08/19 03:09:36;;;;;;;10.38;5.63;;;23.80;88.70;;;;;;5066445;28;20076;-82
2022/08/19 03:12:03;;;;;;;9.68;6.15;;;23.80;89.40;;;;;;5068385;28;20103;-83
2022/08/19 03:14:31;;;;;;;9.60;5.43;;;23.70;89.90;;;;;;5068007;28;20035;-83
2022/08/19 03:16:58;;;;;;;7.55;4.93;;;23.60;89.80;;;;;;5066729;28;20026;-83
2022/08/19 03:19:23;;;;;;;6.20;4.90;;;23.70;90.00;;;;;;5068099;28;20026;-82
2022/08/19 03:21:51;;;;;;;7.88;5.57;;;23.60;90.10;;;;;;5066368;28;20424;-83
2022/08/19 03:24:18;;;;;;;5.97;4.53;;;23.60;90.10;;;;;;5066018;28;20089;-82
2022/08/19 03:26:50;;;;;;;12.25;5.15;;;23.70;89.70;;;;;;5066639;28;20127;-81
2022/08/19 03:29:17;;;;;;;8.85;4.43;;;23.70;89.40;;;;;;5066660;28;20060;-83
2022/08/19 03:31:44;;;;;;;6.32;4.70;;;23.80;89.20;;;;;;5066563;28;20021;-83
2022/08/19 03:34:33;;;;;;;9.63;5.85;;;23.80;89.00;;;;;;5066544;28;20382;-83
2022/08/19 03:37:04;;;;;;;6.95;4.60;;;23.80;89.00;;;;;;5064069;28;20162;-82
2022/08/19 03:39:30;;;;;;;7.40;4.68;;;23.80;88.80;;;;;;5066294;28;20028;-82
2022/08/19 03:41:58;;;;;;;5.95;4.05;;;23.80;89.00;;;;;;5066233;28;20439;-83
2022/08/19 03:44:23;;;;;;;6.22;4.20;;;23.80;89.00;;;;;;5066435;28;20093;-83
2022/08/19 03:46:56;;;;;;;5.47;4.38;;;23.80;89.20;;;;;;5065886;28;20431;-83
2022/08/19 03:49:24;;;;;;;8.00;4.65;;;23.90;88.50;;;;;;5066095;28;20028;-82
2022/08/19 03:51:50;;;;;;;7.88;4.80;;;24.00;89.00;;;;;;5065667;28;20477;-82
2022/08/19 03:54:19;;;;;;;8.63;3.72;;;24.10;88.30;;;;;;5066436;28;20024;-83
2022/08/19 03:56:47;;;;;;;6.97;4.63;;;24.10;87.20;;;;;;5066770;28;20059;-81
2022/08/19 03:59:20;;;;;;;7.93;4.03;;;24.40;86.40;;;;;;5066147;28;20046;-82
2022/08/19 04:01:46;;;;;;;7.28;4.55;;;24.60;85.60;;;;;;5066115;28;20028;-82
2022/08/19 04:04:12;;;;;;;6.13;4.30;;;24.70;86.10;;;;;;5067254;28;20032;-83
2022/08/19 04:06:38;;;;;;;7.45;4.28;;;24.70;85.60;;;;;;5067267;28;20528;-83
2022/08/19 04:09:06;;;;;;;8.80;3.63;;;24.80;85.50;;;;;;5065892;28;20028;-83
2022/08/19 04:11:35;;;;;;;11.52;3.85;;;24.80;85.20;;;;;;5065711;28;20032;-82
2022/08/19 04:14:01;;;;;;;6.00;4.40;;;24.90;84.90;;;;;;5066083;28;20546;-82
2022/08/19 04:16:28;;;;;;;6.43;4.25;;;24.90;85.40;;;;;;5065566;28;20028;-82
2022/08/19 04:18:56;;;;;;;5.95;4.40;;;25.00;84.60;;;;;;5068159;28;20031;-82
2022/08/19 04:21:24;;;;;;;11.80;4.40;;;25.00;84.50;;;;;;5069689;28;20024;-83
2022/08/19 04:23:50;;;;;;;6.32;3.92;;;25.10;84.60;;;;;;5069663;28;20028;-82
2022/08/19 04:26:24;;;;;;;9.95;4.65;;;25.10;84.60;;;;;;5069815;28;20032;-83
2022/08/19 04:28:51;;;;;;;7.07;3.67;;;25.20;84.20;;;;;;5068957;28;20060;-83
2022/08/19 04:31:26;;;;;;;7.80;3.58;;;25.20;84.30;;;;;;5071204;28;20028;-83
2022/08/19 04:33:57;;;;;;;7.50;4.07;;;25.20;85.20;;;;;;5070139;28;20447;-82
2022/08/19 04:36:29;;;;;;;6.38;4.60;;;25.20;85.80;;;;;;5068810;28;20424;-83
2022/08/19 04:38:59;;;;;;;7.65;4.70;;;25.20;86.20;;;;;;5071031;28;20488;-82
2022/08/19 04:44:10;;;;;;;8.15;4.15;;;25.30;85.50;;;;;;5071214;28;20321;-83
2022/08/19 04:46:36;;;;;;;5.63;3.78;;;25.40;85.00;;;;;;5069475;28;20033;-83
2022/08/19 04:49:04;;;;;;;5.60;4.25;;;25.40;84.70;;;;;;5069554;28;20081;-83
2022/08/19 04:51:32;;;;;;;8.88;4.10;;;25.50;84.60;;;;;;5072351;28;20028;-82
2022/08/19 04:53:59;;;;;;;7.68;3.92;;;25.60;84.60;;;;;;5069643;28;20386;-83
2022/08/19 04:56:26;;;;;;;9.52;5.13;;;25.70;84.80;;;;;;5070523;28;20028;-83
2022/08/19 04:58:53;;;;;;;6.10;3.83;;;25.80;84.70;;;;;;5069171;28;20073;-83
2022/08/19 05:01:24;;;;;;;6.53;3.78;;;26.00;84.60;;;;;;5070305;28;20029;-82
2022/08/19 05:03:51;;;;;;;5.53;4.03;;;26.10;84.70;;;;;;5070687;28;20158;-83
2022/08/19 05:06:19;;;;;;;8.10;3.95;;;26.40;84.20;;;;;;5068155;28;20032;-83
2022/08/19 05:08:46;;;;;;;5.28;3.78;;;26.40;83.90;;;;;;5085470;28;20035;-83
2022/08/19 05:11:44;;;;;;;10.13;4.40;;;26.60;83.20;;;;;;5090251;28;20197;-83
2022/08/19 05:14:12;;;;;;;9.27;3.90;;;26.80;84.40;;;;;;5044726;28;20032;-83
2022/08/19 05:16:38;;;;;;;4.20;3.60;;;26.90;83.60;;;;;;5088983;28;20380;-83
2022/08/19 05:24:35;;;;;;;4.80;3.42;;;27.50;80.20;;;;;;5050611;28;20090;-83
2022/08/19 05:27:02;;;;;;;4.15;3.00;;;27.90;79.20;;;;;;5048722;28;20024;-83
2022/08/19 05:29:31;;;;;;;4.38;3.53;;;28.20;78.70;;;;;;5081303;28;20500;-83
2022/08/19 05:31:58;;;;;;;3.90;2.88;;;28.40;77.70;;;;;;5069756;28;20664;-83
2022/08/19 05:34:25;;;;;;;10.48;3.78;;;28.60;77.00;;;;;;5068375;28;20035;-83
2022/08/19 05:36:56;;;;;;;4.45;3.10;;;28.90;76.60;;;;;;5067732;28;20028;-83
2022/08/19 05:39:24;;;;;;;8.75;4.00;;;29.10;76.50;;;;;;5068635;28;20024;-83
2022/08/19 05:41:54;;;;;;;5.65;3.28;;;29.30;75.80;;;;;;5068204;28;20056;-83
2022/08/19 05:44:21;;;;;;;5.47;3.97;;;29.40;74.30;;;;;;5067941;28;20020;-83
2022/08/19 05:46:47;;;;;;;7.50;3.75;;;29.50;74.30;;;;;;5069322;28;20442;-83
2022/08/19 05:49:15;;;;;;;4.60;3.08;;;29.60;73.50;;;;;;5069620;28;20040;-84
2022/08/19 05:51:42;;;;;;;6.28;3.20;;;29.70;73.60;;;;;;5068940;28;20024;-82
2022/08/19 05:54:08;;;;;;;5.63;3.60;;;29.80;73.60;;;;;;5068122;28;20033;-83
2022/08/19 05:56:38;;;;;;;4.38;3.50;;;30.10;72.30;;;;;;5068149;28;20493;-84
2022/08/19 05:59:08;;;;;;;5.03;3.35;;;30.40;72.10;;;;;;5067665;28;20028;-84
2022/08/19 06:01:34;;;;;;;5.72;3.30;;;30.70;72.50;;;;;;5067978;28;20115;-83
2022/08/19 06:04:00;;;;;;;5.90;3.08;;;30.90;70.30;;;;;;5067732;28;20078;-83
2022/08/19 06:06:26;;;;;;;4.10;3.28;;;31.20;69.80;;;;;;5067466;28;20028;-84
2022/08/19 06:08:52;;;;;;;7.50;3.05;;;31.30;69.20;;;;;;5067088;28;20778;-83
2022/08/19 06:11:24;;;;;;;6.88;3.42;;;31.70;68.50;;;;;;5067612;28;20151;-83
2022/08/19 06:13:52;;;;;;;11.95;3.40;;;31.90;67.60;;;;;;5068078;28;20575;-83
2022/08/19 06:16:22;;;;;;;4.47;2.97;;;32.00;66.60;;;;;;5066712;28;20119;-83
2022/08/19 06:18:56;;;;;;;3.88;2.92;;;32.30;66.50;;;;;;5067391;28;20559;-84
2022/08/19 06:21:24;;;;;;;3.83;2.77;;;32.70;66.00;;;;;;5066296;28;20032;-84
2022/08/19 06:23:51;;;;;;;5.85;3.30;;;33.10;65.10;;;;;;5068044;28;20039;-84
2022/08/19 06:26:18;;;;;;;5.00;3.75;;;33.20;62.80;;;;;;5067249;28;20039;-83
2022/08/19 06:28:46;;;;;;;6.65;2.78;;;33.30;62.90;;;;;;5066676;28;20057;-83
2022/08/19 06:31:33;;;;;;;4.70;3.10;;;33.50;62.10;;;;;;5066569;28;20044;-83
2022/08/19 06:34:02;;;;;;;7.75;3.47;;;33.80;60.90;;;;;;5066820;28;20052;-82
2022/08/19 06:36:33;;;;;;;4.47;3.13;;;33.90;59.80;;;;;;5066398;28;20082;-83
2022/08/19 06:39:05;;;;;;;7.75;2.80;;;33.90;59.70;;;;;;5066539;28;20427;-83
2022/08/19 06:41:33;;;;;;;8.23;3.53;;;33.70;59.50;;;;;;5066388;28;20057;-83
2022/08/19 06:43:59;;;;;;;3.92;2.85;;;33.60;59.90;;;;;;5067024;28;20033;-83
2022/08/19 06:46:26;;;;;;;7.88;3.42;;;33.70;59.90;;;;;;5067801;28;20054;-83
2022/08/19 06:48:54;;;;;;;3.95;2.75;;;33.70;59.70;;;;;;5065770;28;20024;-83
2022/08/19 06:51:20;;;;;;;6.03;3.53;;;33.60;59.90;;;;;;5066551;28;20103;-83
2022/08/19 06:53:48;;;;;;;6.63;3.35;;;33.50;59.50;;;;;;5066292;28;20024;-83
2022/08/19 06:56:15;;;;;;;8.32;3.30;;;33.70;59.40;;;;;;5067549;28;20107;-83
2022/08/19 06:58:41;;;;;;;5.28;3.08;;;33.90;57.90;;;;;;5066661;28;20043;-84
2022/08/19 07:01:06;;;;;;;5.50;3.47;;;34.00;57.80;;;;;;5067530;28;20024;-82
2022/08/19 07:03:34;;;;;;;6.32;2.95;;;34.00;57.70;;;;;;5066602;28;20032;-83
2022/08/19 07:06:14;;;;;;;6.45;2.88;;;33.70;57.40;;;;;;5067419;28;20028;-84
2022/08/19 07:08:40;;;;;;;5.03;3.08;;;34.00;56.70;;;;;;5083882;28;20024;-83
2022/08/19 07:11:12;;;;;;;5.97;2.72;;;34.00;56.70;;;;;;5086301;28;20124;-84
2022/08/19 07:13:39;;;;;;;9.00;3.20;;;34.20;56.10;;;;;;5088054;28;20502;-83
2022/08/19 07:16:11;;;;;;;8.52;3.85;;;34.30;56.20;;;;;;5085978;28;20028;-83
2022/08/19 07:18:37;;;;;;;5.45;3.50;;;34.40;56.00;;;;;;5086007;28;20024;-84
2022/08/19 07:21:11;;;;;;;6.28;3.33;;;34.70;55.80;;;;;;5087778;28;20042;-83
2022/08/19 07:23:37;;;;;;;8.43;4.43;;;34.80;54.90;;;;;;5072501;28;20389;-84
2022/08/19 07:26:15;;;;;;;7.30;4.20;;;34.90;53.80;;;;;;5067520;28;20035;-83
2022/08/19 07:28:43;;;;;;;12.15;4.18;;;35.10;54.00;;;;;;5066599;28;20119;-84
2022/08/19 07:31:12;;;;;;;6.70;3.67;;;35.10;54.80;;;;;;5066031;28;20039;-83
2022/08/19 07:33:39;;;;;;;7.80;3.90;;;35.20;53.10;;;;;;5065417;28;20926;-82
2022/08/19 07:36:10;;;;;;;10.57;4.47;;;35.50;52.90;;;;;;5067420;28;20060;-81
2022/08/19 07:38:38;;;;;;;6.30;4.20;;;35.20;52.30;;;;;;5066181;28;20029;-82
2022/08/19 07:41:03;;;;;;;7.78;3.80;;;35.50;52.80;;;;;;5065574;28;20458;-81
2022/08/19 07:43:29;;;;;;;5.75;3.40;;;35.80;52.40;;;;;;5067160;28;20107;-81
2022/08/19 07:45:58;;;;;;;10.95;4.15;;;36.10;52.10;;;;;;5065358;28;20025;-81
2022/08/19 07:48:25;;;;;;;11.63;4.72;;;36.40;51.30;;;;;;5065846;28;20040;-81
2022/08/19 07:50:57;;;;;;;5.03;4.05;;;36.10;51.30;;;;;;5067261;28;20508;-82
2022/08/19 07:53:23;;;;;;;9.18;3.53;;;36.10;51.50;;;;;;5065474;28;20028;-81
2022/08/19 07:55:49;;;;;;;4.75;3.33;;;35.90;50.80;;;;;;5065271;28;20101;-81
2022/08/19 07:58:19;;;;;;;5.35;3.05;;;36.00;51.50;;;;;;5067085;28;20481;-82
2022/08/19 08:00:47;;;;;;;6.07;3.65;;;36.20;51.00;;;;;;5065228;28;20017;-81
2022/08/19 08:03:14;;;;;;;6.35;3.60;;;36.40;51.20;;;;;;5065205;28;20024;-81
2022/08/19 08:11:03;;;;;;;5.60;3.42;;;37.10;49.00;;;;;;5067002;28;20075;-82
2022/08/19 08:13:29;;;;;;;7.03;3.55;;;37.40;49.00;;;;;;5067072;28;20085;-82
2022/08/19 08:15:56;;;;;;;4.47;3.58;;;37.40;48.50;;;;;;5064572;28;20127;-82
2022/08/19 08:18:25;;;;;;;8.18;3.45;;;37.50;48.00;;;;;;5065096;28;20560;-81
2022/08/19 08:20:51;;;;;;;8.60;3.20;;;37.30;48.50;;;;;;5065461;28;20028;-81
2022/08/19 08:23:23;;;;;;;9.73;3.50;;;37.40;47.80;;;;;;5066803;28;20032;-82
2022/08/19 08:25:49;;;;;;;9.38;3.50;;;37.10;47.50;;;;;;5065093;28;20093;-81
2022/08/19 08:28:16;;;;;;;6.47;3.80;;;37.30;47.70;;;;;;5066499;28;20044;-81
2022/08/19 08:30:43;;;;;;;6.43;3.17;;;37.10;48.10;;;;;;5066696;28;20549;-81
2022/08/19 08:33:09;;;;;;;11.88;3.83;;;36.40;48.50;;;;;;5064705;28;20027;-81
2022/08/19 08:35:36;;;;;;;7.95;3.45;;;36.30;48.80;;;;;;5066751;28;20029;-81
2022/08/19 08:38:04;;;;;;;8.18;3.22;;;36.40;48.70;;;;;;5065004;28;20482;-84
2022/08/19 08:40:53;;;;;;;6.82;3.30;;;36.40;48.90;;;;;;5066870;28;20028;-82
2022/08/19 08:43:35;;;;;;;7.95;3.63;;;36.40;49.30;;;;;;5065510;28;20043;-81
2022/08/19 08:46:05;;;;;;;4.13;3.33;;;36.70;48.90;;;;;;5065091;28;20720;-82
2022/08/19 08:48:35;;;;;;;5.50;3.25;;;36.90;47.90;;;;;;5064633;28;20028;-82
2022/08/19 08:51:04;;;;;;;5.45;3.35;;;36.80;48.60;;;;;;5065041;28;20410;-82
2022/08/19 08:53:32;;;;;;;4.72;3.13;;;37.00;47.40;;;;;;5066464;28;20447;-81
2022/08/19 08:56:02;;;;;;;5.80;3.00;;;37.00;47.10;;;;;;5065205;28;20473;-82
2022/08/19 08:58:58;;;;;;;4.65;3.22;;;36.90;48.00;;;;;;5064564;28;20477;-80
2022/08/19 09:01:24;;;;;;;8.83;3.07;;;37.20;48.00;;;;;;5059347;28;20081;-82
2022/08/19 09:03:49;;;;;;;7.53;3.25;;;36.90;47.20;;;;;;5064695;28;20266;-81
2022/08/19 09:06:42;;;;;;;9.50;3.22;;;37.00;47.00;;;;;;5080323;28;20035;-81
2022/08/19 09:09:22;;;;;;;18.20;3.90;;;36.70;46.90;;;;;;5060696;28;20032;-81
2022/08/19 09:11:59;;;;;;;6.50;3.15;;;36.60;47.20;;;;;;5068705;28;20041;-81
2022/08/19 09:14:36;;;;;;;7.95;3.58;;;36.50;47.90;;;;;;5067871;28;20035;-81
2022/08/19 09:17:03;;;;;;;11.15;3.50;;;36.70;47.50;;;;;;5068316;28;20452;-82
2022/08/19 09:19:30;;;;;;;5.53;3.20;;;37.00;46.80;;;;;;5068277;28;20115;-82
2022/08/19 09:21:55;;;;;;;7.15;3.33;;;37.20;46.70;;;;;;5069402;28;20024;-82
2022/08/19 09:24:21;;;;;;;6.55;3.70;;;37.30;47.20;;;;;;5067808;28;20515;-81
2022/08/19 09:26:46;;;;;;;6.18;3.00;;;37.70;46.20;;;;;;5068355;28;20062;-81
2022/08/19 09:29:13;;;;;;;6.13;3.67;;;37.80;45.80;;;;;;5073496;28;20040;-81
2022/08/19 09:31:39;;;;;;;5.78;3.05;;;37.90;45.60;;;;;;5088133;28;20044;-82
2022/08/19 09:34:04;;;;;;;10.20;3.33;;;38.20;45.40;;;;;;5088803;28;20025;-82
2022/08/19 09:36:33;;;;;;;7.53;3.65;;;38.60;44.70;;;;;;5089177;28;20028;-82
2022/08/19 09:39:00;;;;;;;12.32;4.28;;;38.70;44.80;;;;;;5068668;28;20052;-82
2022/08/19 09:41:25;;;;;;;7.97;3.60;;;38.70;44.00;;;;;;5067141;28;20020;-82
2022/08/19 09:43:55;;;;;;;4.75;3.50;;;38.90;43.80;;;;;;5068127;28;20093;-82
2022/08/19 09:46:22;;;;;;;9.40;3.40;;;38.60;43.40;;;;;;5066928;28;20032;-81
2022/08/19 09:48:50;;;;;;;5.60;3.20;;;38.50;43.80;;;;;;5067562;28;20028;-81
2022/08/19 09:51:19;;;;;;;8.63;3.60;;;38.60;44.40;;;;;;5067772;28;20044;-82
2022/08/19 09:53:47;;;;;;;5.82;3.28;;;38.90;43.60;;;;;;5067108;28;20770;-82
2022/08/19 09:56:13;;;;;;;6.35;3.42;;;38.80;43.70;;;;;;5067385;28;20034;-82
2022/08/19 09:58:40;;;;;;;12.45;4.28;;;39.10;43.50;;;;;;5068539;28;20059;-82
2022/08/19 10:01:07;;;;;;;6.88;3.65;;;39.30;42.90;;;;;;5067133;28;20021;-82
2022/08/19 10:03:34;;;;;;;10.82;3.47;;;39.40;41.30;;;;;;5067936;28;20123;-82
2022/08/19 10:06:02;;;;;;;8.45;3.47;;;39.30;41.20;;;;;;5067289;28;20029;-83
2022/08/19 10:08:33;;;;;;;9.05;3.97;;;39.20;41.30;;;;;;5067135;28;20032;-82
2022/08/19 10:10:59;;;;;;;13.25;4.13;;;39.10;42.00;;;;;;5067341;28;20158;-81
2022/08/19 10:13:28;;;;;;;11.82;3.78;;;39.20;41.40;;;;;;5067305;28;20012;-81
2022/08/19 10:15:56;;;;;;;12.88;3.90;;;39.10;41.70;;;;;;5067347;28;20037;-82
2022/08/19 10:18:23;;;;;;;9.55;3.83;;;38.80;41.90;;;;;;5067448;28;20025;-81
2022/08/19 10:20:50;;;;;;;18.73;5.40;;;38.20;42.50;;;;;;5068595;28;20033;-81
2022/08/19 10:23:17;;;;;;;14.20;4.28;;;37.50;43.00;;;;;;5087733;28;20584;-81
2022/08/19 10:25:43;;;;;;;6.88;3.70;;;36.90;44.20;;;;;;5104492;28;20127;-83
2022/08/19 10:28:11;;;;;;;18.40;3.88;;;36.60;44.80;;;;;;5104388;28;20119;-82
2022/08/19 10:30:39;;;;;;;10.88;3.72;;;36.40;45.30;;;;;;5071527;28;20036;-81
2022/08/19 10:33:05;;;;;;;7.60;4.55;;;36.30;45.20;;;;;;5068766;28;20024;-81
2022/08/19 10:35:31;;;;;;;18.67;4.15;;;36.20;45.20;;;;;;5067143;28;20028;-81
2022/08/19 10:38:01;;;;;;;15.40;4.40;;;35.90;45.10;;;;;;5067781;28;20493;-82
2022/08/19 10:40:27;;;;;;;12.73;4.10;;;35.70;45.90;;;;;;5067395;28;20031;-82
2022/08/19 10:42:55;;;;;;;8.05;4.05;;;35.60;46.40;;;;;;5067201;28;20060;-81
2022/08/19 10:45:25;;;;;;;13.88;3.63;;;35.60;46.50;;;;;;5067808;28;20035;-81
2022/08/19 10:47:51;;;;;;;13.60;4.97;;;35.60;46.70;;;;;;5068265;28;20025;-82
2022/08/19 10:53:04;;;;;;;11.57;3.60;;;35.60;46.60;;;;;;5069350;28;20035;-82
2022/08/19 10:58:21;;;;;;;6.05;3.63;;;35.70;47.60;;;;;;5068430;28;20098;-82
2022/08/19 11:00:55;;;;;;;8.80;4.13;;;35.70;46.80;;;;;;5067418;28;20029;-81
2022/08/19 11:03:22;;;;;;;9.88;4.25;;;35.70;47.30;;;;;;5067953;28;20021;-82
2022/08/19 11:05:58;;;;;;;13.77;4.90;;;35.70;46.80;;;;;;5068174;28;20401;-84
2022/08/19 11:08:26;;;;;;;13.48;4.65;;;35.70;46.60;;;;;;5067127;28;20039;-84
2022/08/19 11:10:56;;;;;;;8.32;3.88;;;35.60;47.20;;;;;;5067147;28;20051;-84
2022/08/19 11:13:22;;;;;;;7.18;4.35;;;35.60;46.80;;;;;;5067660;28;20449;-85
2022/08/19 11:15:56;;;;;;;15.77;4.00;;;35.50;47.50;;;;;;5066875;28;20021;-84
2022/08/19 11:18:22;;;;;;;13.07;5.90;;;35.60;46.30;;;;;;5068471;28;20017;-84
2022/08/19 11:20:48;;;;;;;13.52;3.80;;;35.40;46.10;;;;;;5067260;28;20625;-84
2022/08/19 11:23:14;;;;;;;8.38;3.95;;;35.30;46.70;;;;;;5066741;28;20032;-83
2022/08/19 11:25:41;;;;;;;9.93;4.10;;;35.40;46.90;;;;;;5067148;28;20086;-85
2022/08/19 11:28:06;;;;;;;9.60;4.03;;;35.40;46.70;;;;;;5066708;28;20040;-84
2022/08/19 11:30:33;;;;;;;10.82;3.92;;;35.50;46.40;;;;;;5067395;28;20032;-84
2022/08/19 11:33:00;;;;;;;9.70;4.63;;;35.50;46.10;;;;;;5067970;28;20024;-84
2022/08/19 11:35:26;;;;;;;20.25;4.28;;;35.50;46.70;;;;;;5068249;28;20370;-85
2022/08/19 11:37:52;;;;;;;9.70;4.80;;;35.30;47.70;;;;;;5066641;28;20074;-84
2022/08/19 11:40:17;;;;;;;12.27;4.80;;;35.40;47.90;;;;;;5067245;28;20119;-84
2022/08/19 11:42:55;;;;;;;10.00;3.78;;;35.50;46.70;;;;;;5067136;28;20025;-84
2022/08/19 11:45:26;;;;;;;8.93;4.57;;;35.50;46.70;;;;;;5067091;28;20032;-85
2022/08/19 11:47:52;;;;;;;6.30;3.47;;;35.40;46.80;;;;;;5066619;28;20020;-85
2022/08/19 11:50:18;;;;;;;13.95;3.97;;;35.50;45.80;;;;;;5066845;28;20417;-85
2022/08/19 11:52:44;;;;;;;17.75;4.35;;;35.40;46.00;;;;;;5066794;28;20063;-82
2022/08/19 11:55:12;;;;;;;11.32;4.65;;;35.50;45.30;;;;;;5067316;28;20121;-82
2022/08/19 11:57:39;;;;;;;12.90;3.78;;;35.60;45.60;;;;;;5073559;28;20016;-82
2022/08/19 12:00:06;;;;;;;12.30;5.15;;;35.60;46.00;;;;;;5105079;28;20178;-83
2022/08/19 12:02:32;;;;;;;13.13;3.38;;;35.70;46.50;;;;;;5087926;28;20040;-82
2022/08/19 12:04:58;;;;;;;7.55;3.45;;;35.80;44.90;;;;;;5086538;28;20473;-82
2022/08/19 12:07:24;;;;;;;10.48;3.45;;;35.90;44.70;;;;;;5070471;28;20032;-82
2022/08/19 12:09:50;;;;;;;9.57;4.22;;;35.90;45.30;;;;;;5079764;28;21003;-82
2022/08/19 12:12:16;;;;;;;17.50;4.45;;;36.00;45.00;;;;;;5067091;28;20135;-82
2022/08/19 12:14:41;;;;;;;8.90;4.13;;;35.90;45.10;;;;;;5067509;28;20025;-83
2022/08/19 12:17:08;;;;;;;8.95;3.55;;;35.70;45.00;;;;;;5067108;28;20029;-83
2022/08/19 12:19:37;;;;;;;14.43;3.70;;;35.70;45.50;;;;;;5067158;28;20485;-83
2022/08/19 12:22:03;;;;;;;6.38;3.30;;;35.70;45.20;;;;;;5067423;28;20119;-82
2022/08/19 12:24:31;;;;;;;10.00;3.78;;;35.70;45.90;;;;;;5067248;28;20044;-81
2022/08/19 12:26:58;;;;;;;7.00;4.00;;;35.90;45.60;;;;;;5066402;28;20025;-82
2022/08/19 12:29:29;;;;;;;8.18;3.45;;;35.90;45.80;;;;;;5066986;28;20057;-82
2022/08/19 12:32:00;;;;;;;7.70;3.50;;;36.00;44.70;;;;;;5066892;28;20040;-82
2022/08/19 12:34:29;;;;;;;10.52;3.58;;;36.00;44.90;;;;;;5067739;28;20032;-83
2022/08/19 12:36:56;;;;;;;8.77;3.47;;;36.00;44.60;;;;;;5066429;28;20035;-82
2022/08/19 12:39:21;;;;;;;8.60;3.53;;;35.90;45.80;;;;;;5068423;28;20114;-82
2022/08/19 12:41:48;;;;;;;9.55;3.08;;;35.90;45.10;;;;;;5079560;28;20044;-83
2022/08/19 12:44:14;;;;;;;5.82;2.80;;;35.90;44.60;;;;;;5073855;28;20048;-83
2022/08/19 12:46:40;;;;;;;13.05;2.90;;;36.00;44.80;;;;;;5078920;28;20064;-82
2022/08/19 12:49:06;;;;;;;6.70;3.08;;;36.00;45.30;;;;;;5079295;28;20068;-83
2022/08/19 12:51:31;;;;;;;8.10;3.00;;;36.00;44.50;;;;;;5080927;28;20515;-83
2022/08/19 12:53:57;;;;;;;7.15;3.30;;;36.00;44.20;;;;;;5089736;28;20038;-83
2022/08/19 12:56:23;;;;;;;8.77;4.30;;;36.10;44.50;;;;;;5087488;28;20466;-82
2022/08/19 12:58:49;;;;;;;8.98;2.90;;;36.20;44.30;;;;;;5063020;28;20734;-83
2022/08/19 13:01:16;;;;;;;10.98;2.97;;;36.10;43.20;;;;;;5060499;28;20033;-83
2022/08/19 13:03:44;;;;;;;7.93;3.33;;;36.00;43.60;;;;;;5059511;28;20045;-81
2022/08/19 13:06:10;;;;;;;14.35;3.80;;;36.10;43.50;;;;;;5074471;28;20055;-83
2022/08/19 13:08:36;;;;;;;11.32;3.03;;;36.10;43.90;;;;;;5072707;28;20471;-84
2022/08/19 13:11:20;;;;;;;8.13;2.90;;;36.20;44.10;;;;;;5083649;28;20036;-83
2022/08/19 13:13:47;;;;;;;11.55;3.00;;;36.30;43.00;;;;;;5073421;28;20035;-84